Time;durP1;ratioP1;P1;durP2;ratioP2;P2;SDS_P1;SDS_P2;PMS_P1;PMS_P2;Temp;Humidity;BMP_temperature;BMP_pressure;BME280_temperature;BME280_humidity;BME280_pressure;Samples;Min_cycle;Max_cycle;Signal;HPM_P1;HPM_P2
2023/09/17 17:05:07;;;;;;;11.65;10.45;;;22.30;99.90;;;;;;5270248;27;20925;-78
2023/09/17 17:07:39;;;;;;;11.80;9.15;;;22.20;99.90;;;;;;5276161;28;20028;-78
2023/09/17 17:10:10;;;;;;;8.52;7.50;;;22.30;99.90;;;;;;5283145;28;20028;-80
2023/09/17 17:12:41;;;;;;;12.18;7.80;;;22.20;99.90;;;;;;5271893;28;20030;-80
2023/09/17 17:15:12;;;;;;;8.85;7.95;;;22.20;99.90;;;;;;5273414;28;20062;-81
2023/09/17 17:17:43;;;;;;;8.48;6.97;;;22.30;99.90;;;;;;5275592;28;20517;-82
2023/09/17 17:20:14;;;;;;;13.10;8.77;;;22.20;99.90;;;;;;5269211;28;20032;-84
2023/09/17 17:22:48;;;;;;;10.85;8.38;;;22.20;99.90;;;;;;5270303;28;20502;-82
2023/09/17 17:25:19;;;;;;;11.75;8.27;;;22.20;99.90;;;;;;5269668;28;20055;-82
2023/09/17 17:27:51;;;;;;;8.50;7.68;;;22.30;99.90;;;;;;5267893;28;20046;-81
2023/09/17 17:30:22;;;;;;;9.73;8.73;;;22.40;99.90;;;;;;5269563;28;20028;-77
2023/09/17 17:32:53;;;;;;;12.55;8.68;;;22.30;99.90;;;;;;5268759;28;20036;-74
2023/09/17 17:35:23;;;;;;;11.07;9.52;;;22.30;99.90;;;;;;5267705;28;20041;-74
2023/09/17 17:37:54;;;;;;;8.20;7.40;;;22.30;99.90;;;;;;5270696;28;20020;-75
2023/09/17 17:40:26;;;;;;;7.72;7.00;;;22.30;99.90;;;;;;5268342;28;20467;-77
2023/09/17 17:42:57;;;;;;;10.38;6.53;;;22.20;99.90;;;;;;5270834;28;20020;-75
2023/09/17 17:45:30;;;;;;;7.55;6.32;;;22.20;99.90;;;;;;5269090;28;20491;-75
2023/09/17 17:48:02;;;;;;;7.28;6.35;;;22.10;99.90;;;;;;5269696;28;20047;-79
2023/09/17 17:50:34;;;;;;;9.45;6.05;;;22.20;99.90;;;;;;5269870;28;20039;-74
2023/09/17 17:53:06;;;;;;;9.35;5.95;;;22.20;99.90;;;;;;5270455;28;20111;-74
2023/09/17 17:55:37;;;;;;;8.57;5.63;;;22.00;99.90;;;;;;5268366;28;20036;-81
2023/09/17 17:58:08;;;;;;;8.65;5.93;;;22.10;99.90;;;;;;5270753;28;20016;-74
2023/09/17 18:00:38;;;;;;;9.00;5.68;;;22.10;99.90;;;;;;5266075;28;20023;-76
2023/09/17 18:03:09;;;;;;;8.07;5.90;;;22.10;99.90;;;;;;5267401;28;20059;-79
2023/09/17 18:05:40;;;;;;;9.15;5.88;;;22.20;99.90;;;;;;5267419;28;20165;-76
2023/09/17 18:08:12;;;;;;;11.82;5.70;;;22.10;99.90;;;;;;5268368;28;20033;-86
2023/09/17 18:10:43;;;;;;;9.57;5.70;;;22.10;99.90;;;;;;5275374;28;20028;-75
2023/09/17 18:13:14;;;;;;;9.13;5.57;;;22.10;99.90;;;;;;5272479;28;20040;-83
2023/09/17 18:15:45;;;;;;;10.05;5.35;;;22.10;99.90;;;;;;5271046;27;20051;-79
2023/09/17 18:18:16;;;;;;;9.00;5.63;;;22.00;99.90;;;;;;5270315;28;20701;-75
2023/09/17 18:20:47;;;;;;;8.80;5.68;;;22.00;99.90;;;;;;5269471;28;20043;-74
2023/09/17 18:23:18;;;;;;;8.05;5.47;;;22.00;99.90;;;;;;5266716;28;20032;-87
2023/09/17 18:25:49;;;;;;;8.23;5.70;;;22.00;99.90;;;;;;5267292;28;20416;-87
2023/09/17 18:28:22;;;;;;;9.70;5.70;;;22.00;99.90;;;;;;5263783;28;20067;-85
2023/09/17 18:30:57;;;;;;;9.82;6.13;;;21.90;99.90;;;;;;5268780;28;20032;-80
2023/09/17 18:33:28;;;;;;;8.15;6.03;;;21.90;99.90;;;;;;5270806;28;20230;-79
2023/09/17 18:35:59;;;;;;;21.30;5.85;;;21.90;99.90;;;;;;5265378;28;20036;-83
2023/09/17 18:38:30;;;;;;;6.72;5.18;;;21.90;99.90;;;;;;5268317;28;20035;-85
2023/09/17 18:41:01;;;;;;;12.32;5.80;;;21.90;99.90;;;;;;5267685;28;20028;-81
2023/09/17 18:43:32;;;;;;;8.32;5.82;;;21.90;99.90;;;;;;5262239;28;20037;-79
2023/09/17 18:46:04;;;;;;;9.10;6.25;;;22.00;99.90;;;;;;5267282;28;20055;-79
2023/09/17 18:48:38;;;;;;;12.82;7.07;;;21.90;99.90;;;;;;5262595;28;20036;-73
2023/09/17 18:51:09;;;;;;;9.82;5.88;;;22.00;99.90;;;;;;5265886;28;20024;-80
2023/09/17 18:53:40;;;;;;;15.68;6.50;;;22.00;99.90;;;;;;5268826;28;20031;-75
2023/09/17 18:56:11;;;;;;;7.45;6.00;;;22.00;99.90;;;;;;5268704;28;20031;-75
2023/09/17 18:58:42;;;;;;;8.52;5.25;;;21.90;99.90;;;;;;5271060;28;20031;-75
2023/09/17 19:01:13;;;;;;;7.13;6.32;;;21.90;99.90;;;;;;5270512;28;20035;-75
2023/09/17 19:03:44;;;;;;;7.07;6.22;;;21.90;99.90;;;;;;5269077;28;20051;-79
2023/09/17 19:06:15;;;;;;;7.32;5.68;;;21.80;99.90;;;;;;5265544;28;20044;-79
2023/09/17 19:08:47;;;;;;;10.43;6.15;;;21.80;99.90;;;;;;5268499;28;20023;-77
2023/09/17 19:11:19;;;;;;;6.90;5.47;;;21.80;99.90;;;;;;5267177;28;20031;-74
2023/09/17 19:13:50;;;;;;;6.82;5.80;;;21.80;99.90;;;;;;5271572;27;20043;-74
2023/09/17 19:16:21;;;;;;;8.48;6.40;;;21.80;99.90;;;;;;5266377;28;20035;-75
2023/09/17 19:18:52;;;;;;;7.10;5.80;;;21.70;99.90;;;;;;5268823;28;20039;-75
2023/09/17 19:21:24;;;;;;;8.23;6.60;;;21.60;99.90;;;;;;5264421;28;20064;-76
2023/09/17 19:23:57;;;;;;;7.07;6.47;;;21.70;99.90;;;;;;5267607;28;20617;-76
2023/09/17 19:26:29;;;;;;;7.38;6.63;;;21.70;99.90;;;;;;5263487;28;20028;-76
2023/09/17 19:29:03;;;;;;;8.05;6.28;;;21.70;99.90;;;;;;5269376;28;20032;-78
2023/09/17 19:31:34;;;;;;;10.60;7.47;;;21.70;99.90;;;;;;5271006;28;20020;-75
2023/09/17 19:34:06;;;;;;;8.82;7.65;;;21.70;99.90;;;;;;5266759;28;20037;-75
2023/09/17 19:36:39;;;;;;;9.73;8.30;;;21.80;99.90;;;;;;5270057;28;20023;-75
2023/09/17 19:39:11;;;;;;;9.48;7.63;;;21.60;99.90;;;;;;5271662;28;20032;-76
2023/09/17 19:41:43;;;;;;;10.38;7.32;;;21.60;99.90;;;;;;5268659;28;20104;-75
2023/09/17 19:44:14;;;;;;;10.48;7.03;;;21.70;99.90;;;;;;5273412;28;20105;-75
2023/09/17 19:46:45;;;;;;;7.53;6.70;;;21.60;99.90;;;;;;5267905;28;20097;-75
2023/09/17 19:49:20;;;;;;;11.57;7.47;;;21.60;99.90;;;;;;5268474;28;20036;-75
2023/09/17 19:51:51;;;;;;;8.75;6.82;;;21.60;99.90;;;;;;5274449;28;20036;-77
2023/09/17 19:54:22;;;;;;;7.95;7.10;;;21.70;99.90;;;;;;5266157;28;20047;-75
2023/09/17 19:56:53;;;;;;;7.82;7.03;;;21.60;99.90;;;;;;5270376;28;20031;-78
2023/09/17 19:59:24;;;;;;;11.05;7.07;;;21.70;99.90;;;;;;5269351;28;20499;-81
2023/09/17 20:01:55;;;;;;;7.97;7.05;;;21.50;99.90;;;;;;5268941;28;20066;-77
2023/09/17 20:04:26;;;;;;;7.22;6.53;;;21.40;99.90;;;;;;5269730;28;20056;-83
2023/09/17 20:06:58;;;;;;;7.13;6.47;;;21.60;99.90;;;;;;5270253;28;20028;-75
2023/09/17 20:09:29;;;;;;;8.55;7.05;;;21.50;99.90;;;;;;5269619;28;20066;-76
2023/09/17 20:12:00;;;;;;;7.30;6.60;;;21.50;99.90;;;;;;5265429;28;20115;-74
2023/09/17 20:14:30;;;;;;;7.80;6.45;;;21.50;99.90;;;;;;5270235;28;20093;-74
2023/09/17 20:17:02;;;;;;;7.50;6.90;;;21.50;99.90;;;;;;5269344;28;20530;-82
2023/09/17 20:19:35;;;;;;;7.60;6.80;;;21.50;99.90;;;;;;5257565;28;20102;-77
2023/09/17 20:22:06;;;;;;;7.63;6.63;;;21.50;99.90;;;;;;5256645;28;20024;-76
2023/09/17 20:24:37;;;;;;;12.88;6.97;;;21.50;99.90;;;;;;5259895;28;20042;-76
2023/09/17 20:27:08;;;;;;;9.75;7.47;;;21.30;99.90;;;;;;5262875;28;20025;-76
2023/09/17 20:29:39;;;;;;;8.23;6.95;;;21.30;99.90;;;;;;5257696;28;20038;-75
2023/09/17 20:32:10;;;;;;;8.00;7.03;;;21.20;99.90;;;;;;5262564;28;20020;-76
2023/09/17 20:34:41;;;;;;;8.50;7.32;;;21.20;99.90;;;;;;5257752;28;20076;-78
2023/09/17 20:37:12;;;;;;;9.55;7.88;;;21.20;99.90;;;;;;5253495;28;20112;-78
2023/09/17 20:39:43;;;;;;;9.98;7.78;;;21.00;99.90;;;;;;5250539;28;20024;-77
2023/09/17 20:42:13;;;;;;;7.70;6.25;;;21.00;99.90;;;;;;5262548;28;20399;-77
2023/09/17 20:44:45;;;;;;;10.32;6.65;;;20.90;99.90;;;;;;5257002;28;20070;-79
2023/09/17 20:47:16;;;;;;;7.40;5.72;;;20.90;99.90;;;;;;5261017;28;20024;-79
2023/09/17 20:49:47;;;;;;;7.70;5.93;;;21.00;99.90;;;;;;5260384;28;20077;-79
2023/09/17 20:52:19;;;;;;;7.00;5.32;;;21.00;99.90;;;;;;5247778;28;20025;-76
2023/09/17 20:54:50;;;;;;;7.90;5.30;;;20.90;99.90;;;;;;5264354;28;20123;-76
2023/09/17 20:57:22;;;;;;;6.35;5.60;;;20.90;99.90;;;;;;5268881;28;20103;-76
2023/09/17 20:59:53;;;;;;;8.02;5.88;;;20.80;99.90;;;;;;5251146;28;20033;-78
2023/09/17 21:02:24;;;;;;;9.35;5.47;;;20.70;99.90;;;;;;5260661;28;20024;-77
2023/09/17 21:04:57;;;;;;;7.53;5.82;;;20.70;99.90;;;;;;5247268;28;20056;-78
2023/09/17 21:07:28;;;;;;;8.23;5.45;;;20.70;99.90;;;;;;5252393;28;20020;-77
2023/09/17 21:09:59;;;;;;;7.40;5.80;;;20.50;99.90;;;;;;5269227;28;20070;-77
2023/09/17 21:12:32;;;;;;;7.47;5.97;;;20.50;99.90;;;;;;5268533;28;20483;-77
2023/09/17 21:15:06;;;;;;;8.63;5.70;;;20.50;99.90;;;;;;5253928;28;20032;-78
2023/09/17 21:17:38;;;;;;;10.50;5.82;;;20.50;99.90;;;;;;5258977;28;20088;-77
2023/09/17 21:20:11;;;;;;;7.50;5.65;;;20.60;99.90;;;;;;5255812;28;20021;-76
2023/09/17 21:22:42;;;;;;;7.20;6.35;;;20.60;99.90;;;;;;5247815;28;20035;-78
2023/09/17 21:25:15;;;;;;;8.82;7.70;;;20.50;99.90;;;;;;5252608;28;20475;-77
2023/09/17 21:27:46;;;;;;;7.97;6.60;;;20.60;99.90;;;;;;5253706;28;20798;-77
2023/09/17 21:30:17;;;;;;;6.10;5.30;;;20.60;99.90;;;;;;5253333;28;20021;-78
2023/09/17 21:32:48;;;;;;;7.00;6.32;;;20.60;99.90;;;;;;5247776;28;20044;-77
2023/09/17 21:35:19;;;;;;;9.45;5.97;;;20.70;99.90;;;;;;5264489;28;20024;-77
2023/09/17 21:37:50;;;;;;;11.50;5.40;;;20.60;99.90;;;;;;5263186;28;20012;-78
2023/09/17 21:40:21;;;;;;;6.32;5.20;;;20.70;99.90;;;;;;5249017;28;20025;-77
2023/09/17 21:42:51;;;;;;;7.45;5.65;;;20.70;99.90;;;;;;5258028;28;20383;-76
2023/09/17 21:45:22;;;;;;;6.30;5.53;;;20.60;99.90;;;;;;5247666;28;20474;-77
2023/09/17 21:47:54;;;;;;;7.30;5.57;;;20.70;99.90;;;;;;5250603;28;20376;-77
2023/09/17 21:50:24;;;;;;;12.38;6.18;;;20.70;99.90;;;;;;5249184;28;20095;-77
2023/09/17 21:52:55;;;;;;;7.57;5.28;;;20.70;99.90;;;;;;5259735;28;20542;-78
2023/09/17 21:55:26;;;;;;;6.50;4.50;;;20.70;99.90;;;;;;5272601;28;20513;-77
2023/09/17 21:57:57;;;;;;;7.15;5.40;;;20.70;99.90;;;;;;5266633;28;20020;-76
2023/09/17 22:00:28;;;;;;;8.93;4.75;;;20.80;99.90;;;;;;5253594;28;20021;-79
2023/09/17 22:02:59;;;;;;;11.68;5.28;;;20.80;99.90;;;;;;5264882;28;20044;-78
2023/09/17 22:05:30;;;;;;;5.93;4.90;;;20.80;99.90;;;;;;5261944;28;20029;-77
2023/09/17 22:08:00;;;;;;;5.82;5.20;;;20.70;99.90;;;;;;5262829;28;20031;-78
2023/09/17 22:10:35;;;;;;;7.07;5.30;;;20.70;99.90;;;;;;5251009;28;20032;-78
2023/09/17 22:13:06;;;;;;;8.50;4.68;;;20.80;99.90;;;;;;5250727;28;20353;-78
2023/09/17 22:15:37;;;;;;;8.02;5.50;;;20.80;99.90;;;;;;5250553;28;20024;-79
2023/09/17 22:18:08;;;;;;;6.07;5.30;;;20.80;99.90;;;;;;5250631;28;20510;-79
2023/09/17 22:20:39;;;;;;;5.93;5.20;;;20.80;99.90;;;;;;5250578;28;20021;-77
2023/09/17 22:23:10;;;;;;;6.85;5.63;;;20.90;99.90;;;;;;5250157;28;20063;-76
2023/09/17 22:25:41;;;;;;;5.20;4.60;;;20.80;99.90;;;;;;5250223;28;20035;-76
2023/09/17 22:28:14;;;;;;;7.40;5.65;;;20.70;99.90;;;;;;5250198;28;20034;-77
2023/09/17 22:30:45;;;;;;;7.32;5.57;;;20.80;99.90;;;;;;5249732;28;20016;-75
2023/09/17 22:33:15;;;;;;;8.38;5.50;;;21.00;99.90;;;;;;5250158;28;20047;-75
2023/09/17 22:35:46;;;;;;;9.20;5.78;;;20.90;99.90;;;;;;5250230;28;20410;-75
2023/09/17 22:38:17;;;;;;;9.82;5.20;;;20.90;99.90;;;;;;5250235;28;20032;-76
2023/09/17 22:40:48;;;;;;;6.07;4.82;;;20.80;99.90;;;;;;5250004;28;20734;-76
2023/09/17 22:43:19;;;;;;;7.65;5.60;;;20.90;99.90;;;;;;5249981;28;20530;-79
2023/09/17 22:45:50;;;;;;;7.40;5.25;;;20.90;99.90;;;;;;5249874;28;20071;-75
2023/09/17 22:48:21;;;;;;;5.82;5.22;;;20.90;99.90;;;;;;5249713;28;20033;-76
2023/09/17 22:50:54;;;;;;;6.45;5.75;;;21.00;99.90;;;;;;5249573;28;20104;-75
2023/09/17 22:53:25;;;;;;;6.70;5.25;;;21.10;99.90;;;;;;5249708;28;20036;-80
2023/09/17 22:55:56;;;;;;;7.15;5.60;;;21.00;99.90;;;;;;5249534;28;20073;-77
2023/09/17 22:58:27;;;;;;;7.50;5.90;;;20.90;99.90;;;;;;5249870;28;20467;-76
2023/09/17 23:00:59;;;;;;;7.75;6.20;;;20.90;99.90;;;;;;5249297;28;20144;-78
2023/09/17 23:03:30;;;;;;;6.47;5.15;;;20.80;99.90;;;;;;5249458;28;20052;-78
2023/09/17 23:06:01;;;;;;;6.68;5.38;;;20.90;99.90;;;;;;5249285;28;20024;-75
2023/09/17 23:08:32;;;;;;;8.02;5.47;;;21.00;99.90;;;;;;5249311;28;20020;-76
2023/09/17 23:11:05;;;;;;;6.60;5.50;;;21.00;99.90;;;;;;5249082;28;20058;-75
2023/09/17 23:13:36;;;;;;;7.88;6.07;;;20.90;99.90;;;;;;5249422;28;20028;-76
2023/09/17 23:16:07;;;;;;;6.50;5.65;;;20.90;99.90;;;;;;5249521;28;20078;-76
2023/09/17 23:18:39;;;;;;;6.57;5.50;;;20.90;99.90;;;;;;5249670;28;20099;-76
2023/09/17 23:21:14;;;;;;;7.13;5.60;;;20.90;99.90;;;;;;5249827;28;20360;-75
2023/09/17 23:23:45;;;;;;;9.95;5.50;;;21.00;99.90;;;;;;5249666;28;20468;-77
2023/09/17 23:26:16;;;;;;;6.25;5.32;;;21.00;99.90;;;;;;5249862;28;20027;-76
2023/09/17 23:28:48;;;;;;;7.13;5.32;;;21.00;99.90;;;;;;5249668;28;20710;-77
2023/09/17 23:31:19;;;;;;;5.60;5.10;;;20.90;99.90;;;;;;5249486;28;20024;-76
2023/09/17 23:33:53;;;;;;;6.63;5.43;;;21.00;99.90;;;;;;5249393;28;20047;-77
2023/09/17 23:36:27;;;;;;;7.05;5.63;;;20.90;99.90;;;;;;5249516;28;20060;-77
2023/09/17 23:38:58;;;;;;;7.13;5.18;;;20.90;99.90;;;;;;5249508;28;20020;-76
2023/09/17 23:41:28;;;;;;;8.85;5.68;;;21.00;99.90;;;;;;5249603;28;20032;-77
2023/09/17 23:43:59;;;;;;;7.38;6.05;;;21.00;99.90;;;;;;5249597;28;20036;-77
2023/09/17 23:46:31;;;;;;;6.53;5.90;;;21.00;99.90;;;;;;5249054;28;20029;-75
2023/09/17 23:49:04;;;;;;;7.18;6.43;;;21.00;99.90;;;;;;5247629;28;20032;-75
2023/09/17 23:51:34;;;;;;;10.50;6.80;;;20.90;99.90;;;;;;5248620;28;20513;-78
2023/09/17 23:54:05;;;;;;;7.85;6.00;;;20.90;99.90;;;;;;5247347;28;20032;-76
2023/09/17 23:56:36;;;;;;;23.95;7.13;;;20.80;99.90;;;;;;5248625;28;20028;-76
2023/09/17 23:59:07;;;;;;;7.13;5.53;;;20.80;99.90;;;;;;5248318;28;20035;-78
